sensor_id;sensor_type;location;lat;lon;timestamp;temperature;humidity
9157;DHT22;4613;48.392;9.998;2023-06-24T00:01:48;19.30;99.90
9157;DHT22;4613;48.392;9.998;2023-06-24T00:04:38;19.40;99.90
9157;DHT22;4613;48.392;9.998;2023-06-24T00:07:27;19.70;99.90
9157;DHT22;4613;48.392;9.998;2023-06-24T00:10:16;19.70;99.90
9157;DHT22;4613;48.392;9.998;2023-06-24T00:13:05;19.50;99.90
9157;DHT22;4613;48.392;9.998;2023-06-24T00:15:54;19.50;99.90
9157;DHT22;4613;48.392;9.998;2023-06-24T00:18:43;19.40;99.90
9157;DHT22;4613;48.392;9.998;2023-06-24T00:21:32;19.40;99.90
9157;DHT22;4613;48.392;9.998;2023-06-24T00:24:22;19.20;99.90
9157;DHT22;4613;48.392;9.998;2023-06-24T00:27:14;19.50;99.90
9157;DHT22;4613;48.392;9.998;2023-06-24T00:30:04;19.40;99.90
9157;DHT22;4613;48.392;9.998;2023-06-24T00:32:53;19.50;99.90
9157;DHT22;4613;48.392;9.998;2023-06-24T00:35:42;19.40;99.90
9157;DHT22;4613;48.392;9.998;2023-06-24T00:38:34;19.40;99.90
9157;DHT22;4613;48.392;9.998;2023-06-24T00:41:24;19.40;99.90
9157;DHT22;4613;48.392;9.998;2023-06-24T00:44:14;19.40;99.90
9157;DHT22;4613;48.392;9.998;2023-06-24T00:47:04;19.10;99.90
9157;DHT22;4613;48.392;9.998;2023-06-24T00:49:53;18.90;99.90
9157;DHT22;4613;48.392;9.998;2023-06-24T00:52:43;19.10;99.90
9157;DHT22;4613;48.392;9.998;2023-06-24T00:55:33;19.30;99.90
9157;DHT22;4613;48.392;9.998;2023-06-24T00:58:22;19.30;99.90
9157;DHT22;4613;48.392;9.998;2023-06-24T01:01:12;19.10;99.90
9157;DHT22;4613;48.392;9.998;2023-06-24T01:04:02;19.20;99.90
9157;DHT22;4613;48.392;9.998;2023-06-24T01:06:52;19.30;99.90
9157;DHT22;4613;48.392;9.998;2023-06-24T01:09:42;19.30;99.90
9157;DHT22;4613;48.392;9.998;2023-06-24T01:12:34;19.30;99.90
9157;DHT22;4613;48.392;9.998;2023-06-24T01:15:24;19.20;99.90
9157;DHT22;4613;48.392;9.998;2023-06-24T01:18:35;19.10;99.90
9157;DHT22;4613;48.392;9.998;2023-06-24T01:22:06;19.10;99.90
9157;DHT22;4613;48.392;9.998;2023-06-24T01:25:14;18.90;99.90
9157;DHT22;4613;48.392;9.998;2023-06-24T01:34:37;18.70;99.90
9157;DHT22;4613;48.392;9.998;2023-06-24T01:37:48;18.80;99.90
9157;DHT22;4613;48.392;9.998;2023-06-24T01:40:44;19.20;99.90
9157;DHT22;4613;48.392;9.998;2023-06-24T01:43:36;19.20;99.90
9157;DHT22;4613;48.392;9.998;2023-06-24T01:46:28;19.30;99.90
9157;DHT22;4613;48.392;9.998;2023-06-24T01:49:21;19.10;99.90
9157;DHT22;4613;48.392;9.998;2023-06-24T01:52:13;18.90;99.90
9157;DHT22;4613;48.392;9.998;2023-06-24T01:55:06;18.70;99.90
9157;DHT22;4613;48.392;9.998;2023-06-24T01:57:57;18.90;99.90
9157;DHT22;4613;48.392;9.998;2023-06-24T02:00:48;19.00;99.90
9157;DHT22;4613;48.392;9.998;2023-06-24T02:03:38;19.00;99.90
9157;DHT22;4613;48.392;9.998;2023-06-24T02:06:28;18.60;99.90
9157;DHT22;4613;48.392;9.998;2023-06-24T02:09:22;18.40;99.90
9157;DHT22;4613;48.392;9.998;2023-06-24T02:12:13;18.70;99.90
9157;DHT22;4613;48.392;9.998;2023-06-24T02:15:03;18.60;99.90
9157;DHT22;4613;48.392;9.998;2023-06-24T02:17:56;18.50;99.90
9157;DHT22;4613;48.392;9.998;2023-06-24T02:20:48;18.40;99.90
9157;DHT22;4613;48.392;9.998;2023-06-24T02:23:41;18.50;99.90
9157;DHT22;4613;48.392;9.998;2023-06-24T02:26:31;18.40;99.90
9157;DHT22;4613;48.392;9.998;2023-06-24T02:29:21;18.80;99.90
9157;DHT22;4613;48.392;9.998;2023-06-24T02:32:12;18.90;99.90
9157;DHT22;4613;48.392;9.998;2023-06-24T02:35:02;18.80;99.90
9157;DHT22;4613;48.392;9.998;2023-06-24T02:37:51;18.50;99.90
9157;DHT22;4613;48.392;9.998;2023-06-24T02:40:46;18.80;99.90
9157;DHT22;4613;48.392;9.998;2023-06-24T02:43:36;18.70;99.90
9157;DHT22;4613;48.392;9.998;2023-06-24T02:46:27;18.90;99.90
9157;DHT22;4613;48.392;9.998;2023-06-24T02:49:19;19.10;99.90
9157;DHT22;4613;48.392;9.998;2023-06-24T02:52:09;18.90;99.90
9157;DHT22;4613;48.392;9.998;2023-06-24T02:54:59;18.90;99.90
9157;DHT22;4613;48.392;9.998;2023-06-24T02:57:52;18.70;99.90
9157;DHT22;4613;48.392;9.998;2023-06-24T03:01:01;18.60;99.90
9157;DHT22;4613;48.392;9.998;2023-06-24T03:04:12;18.70;99.90
9157;DHT22;4613;48.392;9.998;2023-06-24T03:07:01;18.20;99.90
9157;DHT22;4613;48.392;9.998;2023-06-24T03:09:52;18.10;99.90
9157;DHT22;4613;48.392;9.998;2023-06-24T03:12:43;18.50;99.90
9157;DHT22;4613;48.392;9.998;2023-06-24T03:15:33;18.20;99.90
9157;DHT22;4613;48.392;9.998;2023-06-24T03:18:25;18.20;99.90
9157;DHT22;4613;48.392;9.998;2023-06-24T03:21:15;17.50;99.90
9157;DHT22;4613;48.392;9.998;2023-06-24T03:24:06;17.70;99.90
9157;DHT22;4613;48.392;9.998;2023-06-24T03:26:56;17.90;99.90
9157;DHT22;4613;48.392;9.998;2023-06-24T03:29:49;17.60;99.90
9157;DHT22;4613;48.392;9.998;2023-06-24T03:32:40;17.70;99.90
9157;DHT22;4613;48.392;9.998;2023-06-24T03:35:29;17.90;99.90
9157;DHT22;4613;48.392;9.998;2023-06-24T03:38:24;17.70;99.90
9157;DHT22;4613;48.392;9.998;2023-06-24T03:41:14;18.00;99.90
9157;DHT22;4613;48.392;9.998;2023-06-24T03:44:03;17.90;99.90
9157;DHT22;4613;48.392;9.998;2023-06-24T03:46:58;17.30;99.90
9157;DHT22;4613;48.392;9.998;2023-06-24T03:49:48;17.70;99.90
9157;DHT22;4613;48.392;9.998;2023-06-24T03:52:37;18.10;99.90
9157;DHT22;4613;48.392;9.998;2023-06-24T03:55:26;18.20;99.90
9157;DHT22;4613;48.392;9.998;2023-06-24T03:58:16;17.90;99.90
9157;DHT22;4613;48.392;9.998;2023-06-24T04:01:06;17.40;99.90
9157;DHT22;4613;48.392;9.998;2023-06-24T04:03:55;17.30;99.90
9157;DHT22;4613;48.392;9.998;2023-06-24T04:06:45;17.20;99.90
9157;DHT22;4613;48.392;9.998;2023-06-24T04:09:36;17.40;99.90
9157;DHT22;4613;48.392;9.998;2023-06-24T04:12:25;17.60;99.90
9157;DHT22;4613;48.392;9.998;2023-06-24T04:15:15;17.70;99.90
9157;DHT22;4613;48.392;9.998;2023-06-24T04:18:04;18.10;99.90
9157;DHT22;4613;48.392;9.998;2023-06-24T04:20:53;17.90;99.90
9157;DHT22;4613;48.392;9.998;2023-06-24T04:23:43;18.20;99.90
9157;DHT22;4613;48.392;9.998;2023-06-24T04:26:32;17.80;99.90
9157;DHT22;4613;48.392;9.998;2023-06-24T04:29:22;17.70;99.90
9157;DHT22;4613;48.392;9.998;2023-06-24T04:32:11;17.80;99.90
9157;DHT22;4613;48.392;9.998;2023-06-24T04:35:00;17.90;99.90
9157;DHT22;4613;48.392;9.998;2023-06-24T04:37:51;17.80;99.90
9157;DHT22;4613;48.392;9.998;2023-06-24T04:40:40;17.40;99.90
9157;DHT22;4613;48.392;9.998;2023-06-24T04:43:30;17.50;99.90
9157;DHT22;4613;48.392;9.998;2023-06-24T04:46:19;17.40;99.90
9157;DHT22;4613;48.392;9.998;2023-06-24T04:49:09;17.60;99.90
9157;DHT22;4613;48.392;9.998;2023-06-24T04:52:02;17.80;99.90
9157;DHT22;4613;48.392;9.998;2023-06-24T04:54:53;17.50;99.90
9157;DHT22;4613;48.392;9.998;2023-06-24T04:57:42;17.40;99.90
9157;DHT22;4613;48.392;9.998;2023-06-24T05:00:31;17.80;99.90
9157;DHT22;4613;48.392;9.998;2023-06-24T05:03:20;18.20;99.90
9157;DHT22;4613;48.392;9.998;2023-06-24T05:06:09;18.00;99.90
9157;DHT22;4613;48.392;9.998;2023-06-24T05:09:01;18.00;99.90
9157;DHT22;4613;48.392;9.998;2023-06-24T05:11:51;18.60;99.90
9157;DHT22;4613;48.392;9.998;2023-06-24T05:14:40;18.90;99.90
9157;DHT22;4613;48.392;9.998;2023-06-24T05:17:29;18.80;99.90
9157;DHT22;4613;48.392;9.998;2023-06-24T05:20:19;18.10;99.90
9157;DHT22;4613;48.392;9.998;2023-06-24T05:23:08;18.60;99.90
9157;DHT22;4613;48.392;9.998;2023-06-24T05:25:57;19.50;99.90
9157;DHT22;4613;48.392;9.998;2023-06-24T05:28:46;19.30;99.90
9157;DHT22;4613;48.392;9.998;2023-06-24T05:31:35;19.30;99.90
9157;DHT22;4613;48.392;9.998;2023-06-24T05:34:24;19.70;99.90
9157;DHT22;4613;48.392;9.998;2023-06-24T05:37:13;20.10;99.90
9157;DHT22;4613;48.392;9.998;2023-06-24T05:40:03;20.50;99.90
9157;DHT22;4613;48.392;9.998;2023-06-24T05:42:54;20.40;99.90
9157;DHT22;4613;48.392;9.998;2023-06-24T05:45:43;20.50;99.90
9157;DHT22;4613;48.392;9.998;2023-06-24T05:48:32;20.80;99.90
9157;DHT22;4613;48.392;9.998;2023-06-24T05:51:22;21.10;99.90
9157;DHT22;4613;48.392;9.998;2023-06-24T05:54:11;21.10;99.90
9157;DHT22;4613;48.392;9.998;2023-06-24T05:57:00;21.00;99.90
9157;DHT22;4613;48.392;9.998;2023-06-24T05:59:49;21.00;99.90
9157;DHT22;4613;48.392;9.998;2023-06-24T06:02:38;21.10;99.90
9157;DHT22;4613;48.392;9.998;2023-06-24T06:05:28;21.00;99.90
9157;DHT22;4613;48.392;9.998;2023-06-24T06:08:17;20.70;99.90
9157;DHT22;4613;48.392;9.998;2023-06-24T06:11:06;21.00;99.90
9157;DHT22;4613;48.392;9.998;2023-06-24T06:13:56;21.50;99.90
9157;DHT22;4613;48.392;9.998;2023-06-24T06:16:45;21.60;99.90
9157;DHT22;4613;48.392;9.998;2023-06-24T06:19:34;21.70;99.90
9157;DHT22;4613;48.392;9.998;2023-06-24T06:22:23;21.80;99.90
9157;DHT22;4613;48.392;9.998;2023-06-24T06:25:12;21.70;99.90
9157;DHT22;4613;48.392;9.998;2023-06-24T06:28:01;22.10;99.90
9157;DHT22;4613;48.392;9.998;2023-06-24T06:30:51;21.70;99.90
9157;DHT22;4613;48.392;9.998;2023-06-24T06:33:41;21.30;99.90
9157;DHT22;4613;48.392;9.998;2023-06-24T06:36:30;22.10;99.90
9157;DHT22;4613;48.392;9.998;2023-06-24T06:39:20;21.90;99.90
9157;DHT22;4613;48.392;9.998;2023-06-24T06:42:09;20.80;99.90
9157;DHT22;4613;48.392;9.998;2023-06-24T06:44:58;21.70;99.90
9157;DHT22;4613;48.392;9.998;2023-06-24T06:47:47;22.90;99.90
9157;DHT22;4613;48.392;9.998;2023-06-24T06:50:36;21.70;99.90
9157;DHT22;4613;48.392;9.998;2023-06-24T06:53:25;21.20;99.90
9157;DHT22;4613;48.392;9.998;2023-06-24T06:56:33;21.20;99.90
9157;DHT22;4613;48.392;9.998;2023-06-24T06:59:22;20.90;99.90
9157;DHT22;4613;48.392;9.998;2023-06-24T07:02:11;21.00;99.90
9157;DHT22;4613;48.392;9.998;2023-06-24T07:05:01;20.70;99.90
9157;DHT22;4613;48.392;9.998;2023-06-24T07:07:52;21.50;99.90
9157;DHT22;4613;48.392;9.998;2023-06-24T07:10:42;22.20;99.90
9157;DHT22;4613;48.392;9.998;2023-06-24T07:13:31;22.80;99.90
9157;DHT22;4613;48.392;9.998;2023-06-24T07:16:20;22.20;99.90
9157;DHT22;4613;48.392;9.998;2023-06-24T07:19:09;22.00;99.90
9157;DHT22;4613;48.392;9.998;2023-06-24T07:21:59;22.10;99.90
9157;DHT22;4613;48.392;9.998;2023-06-24T07:24:48;22.40;99.90
9157;DHT22;4613;48.392;9.998;2023-06-24T07:27:38;22.10;99.90
9157;DHT22;4613;48.392;9.998;2023-06-24T07:30:28;22.20;99.90
9157;DHT22;4613;48.392;9.998;2023-06-24T07:33:17;21.30;99.90
9157;DHT22;4613;48.392;9.998;2023-06-24T07:36:06;21.60;99.90
9157;DHT22;4613;48.392;9.998;2023-06-24T07:38:56;22.30;99.90
9157;DHT22;4613;48.392;9.998;2023-06-24T07:41:45;23.30;99.90
9157;DHT22;4613;48.392;9.998;2023-06-24T07:44:34;23.30;99.90
9157;DHT22;4613;48.392;9.998;2023-06-24T07:47:25;23.40;99.90
9157;DHT22;4613;48.392;9.998;2023-06-24T07:50:14;22.80;99.90
9157;DHT22;4613;48.392;9.998;2023-06-24T07:53:03;22.70;99.90
9157;DHT22;4613;48.392;9.998;2023-06-24T07:55:52;22.10;99.90
9157;DHT22;4613;48.392;9.998;2023-06-24T07:58:41;22.50;99.90
9157;DHT22;4613;48.392;9.998;2023-06-24T08:01:31;23.30;99.90
9157;DHT22;4613;48.392;9.998;2023-06-24T08:04:20;23.80;99.90
9157;DHT22;4613;48.392;9.998;2023-06-24T08:07:10;24.10;99.80
9157;DHT22;4613;48.392;9.998;2023-06-24T08:09:59;23.40;99.40
9157;DHT22;4613;48.392;9.998;2023-06-24T08:12:48;24.10;99.80
9157;DHT22;4613;48.392;9.998;2023-06-24T08:15:38;24.70;98.50
9157;DHT22;4613;48.392;9.998;2023-06-24T08:18:27;24.90;98.50
9157;DHT22;4613;48.392;9.998;2023-06-24T08:21:17;25.40;98.10
9157;DHT22;4613;48.392;9.998;2023-06-24T08:24:06;25.50;97.40
9157;DHT22;4613;48.392;9.998;2023-06-24T08:26:56;25.10;97.40
9157;DHT22;4613;48.392;9.998;2023-06-24T08:29:44;25.50;97.10
9157;DHT22;4613;48.392;9.998;2023-06-24T08:32:34;25.40;96.80
9157;DHT22;4613;48.392;9.998;2023-06-24T08:35:23;25.30;96.60
9157;DHT22;4613;48.392;9.998;2023-06-24T08:38:14;24.80;96.80
9157;DHT22;4613;48.392;9.998;2023-06-24T08:41:03;24.70;96.90
9157;DHT22;4613;48.392;9.998;2023-06-24T08:43:53;24.60;96.00
9157;DHT22;4613;48.392;9.998;2023-06-24T08:46:46;24.50;97.00
9157;DHT22;4613;48.392;9.998;2023-06-24T08:49:44;24.40;95.90
9157;DHT22;4613;48.392;9.998;2023-06-24T08:52:36;24.20;96.30
9157;DHT22;4613;48.392;9.998;2023-06-24T08:55:28;23.80;96.60
9157;DHT22;4613;48.392;9.998;2023-06-24T08:58:20;24.40;97.00
9157;DHT22;4613;48.392;9.998;2023-06-24T09:01:09;25.50;96.10
9157;DHT22;4613;48.392;9.998;2023-06-24T09:03:59;25.90;95.50
9157;DHT22;4613;48.392;9.998;2023-06-24T09:06:48;26.50;94.80
9157;DHT22;4613;48.392;9.998;2023-06-24T09:09:44;25.80;94.60
9157;DHT22;4613;48.392;9.998;2023-06-24T09:12:34;25.10;95.00
9157;DHT22;4613;48.392;9.998;2023-06-24T09:15:23;24.30;96.60
9157;DHT22;4613;48.392;9.998;2023-06-24T09:18:13;25.50;95.80
9157;DHT22;4613;48.392;9.998;2023-06-24T09:21:06;25.70;94.80
9157;DHT22;4613;48.392;9.998;2023-06-24T09:23:59;25.70;94.60
9157;DHT22;4613;48.392;9.998;2023-06-24T09:26:48;26.40;94.20
9157;DHT22;4613;48.392;9.998;2023-06-24T09:29:37;26.70;93.80
9157;DHT22;4613;48.392;9.998;2023-06-24T09:32:29;26.60;93.00
9157;DHT22;4613;48.392;9.998;2023-06-24T09:35:23;26.60;92.80
9157;DHT22;4613;48.392;9.998;2023-06-24T09:38:13;26.40;92.10
9157;DHT22;4613;48.392;9.998;2023-06-24T09:41:03;26.40;92.30
9157;DHT22;4613;48.392;9.998;2023-06-24T09:43:57;26.30;92.20
9157;DHT22;4613;48.392;9.998;2023-06-24T09:46:47;25.90;91.40
9157;DHT22;4613;48.392;9.998;2023-06-24T09:49:36;25.50;90.60
9157;DHT22;4613;48.392;9.998;2023-06-24T09:52:26;25.20;91.60
9157;DHT22;4613;48.392;9.998;2023-06-24T09:55:17;24.90;91.80
9157;DHT22;4613;48.392;9.998;2023-06-24T09:58:06;25.10;91.60
9157;DHT22;4613;48.392;9.998;2023-06-24T10:00:56;24.90;91.40
9157;DHT22;4613;48.392;9.998;2023-06-24T10:03:45;24.70;91.70
9157;DHT22;4613;48.392;9.998;2023-06-24T10:06:34;24.60;92.40
9157;DHT22;4613;48.392;9.998;2023-06-24T10:09:23;24.40;92.00
9157;DHT22;4613;48.392;9.998;2023-06-24T10:12:13;24.20;92.60
9157;DHT22;4613;48.392;9.998;2023-06-24T10:15:02;25.10;92.30
9157;DHT22;4613;48.392;9.998;2023-06-24T10:17:52;25.00;91.80
9157;DHT22;4613;48.392;9.998;2023-06-24T10:20:41;25.00;91.50
9157;DHT22;4613;48.392;9.998;2023-06-24T10:23:40;25.20;91.00
9157;DHT22;4613;48.392;9.998;2023-06-24T10:26:35;25.40;90.40
9157;DHT22;4613;48.392;9.998;2023-06-24T10:29:35;25.50;89.80
9157;DHT22;4613;48.392;9.998;2023-06-24T10:32:25;25.50;90.20
9157;DHT22;4613;48.392;9.998;2023-06-24T10:35:25;24.70;91.30
9157;DHT22;4613;48.392;9.998;2023-06-24T10:38:15;25.10;91.10
9157;DHT22;4613;48.392;9.998;2023-06-24T10:41:15;24.90;90.10
9157;DHT22;4613;48.392;9.998;2023-06-24T10:44:14;24.90;91.00
9157;DHT22;4613;48.392;9.998;2023-06-24T10:47:04;24.30;91.90
9157;DHT22;4613;48.392;9.998;2023-06-24T10:49:54;24.40;91.00
9157;DHT22;4613;48.392;9.998;2023-06-24T10:52:45;24.40;90.70
9157;DHT22;4613;48.392;9.998;2023-06-24T10:55:36;24.60;90.10
9157;DHT22;4613;48.392;9.998;2023-06-24T10:58:25;24.30;90.00
9157;DHT22;4613;48.392;9.998;2023-06-24T11:01:15;24.20;88.10
9157;DHT22;4613;48.392;9.998;2023-06-24T11:04:05;24.90;87.60
9157;DHT22;4613;48.392;9.998;2023-06-24T11:06:59;25.10;87.70
9157;DHT22;4613;48.392;9.998;2023-06-24T11:09:56;25.10;89.40
9157;DHT22;4613;48.392;9.998;2023-06-24T11:12:46;25.10;88.60
9157;DHT22;4613;48.392;9.998;2023-06-24T11:15:36;25.10;87.00
9157;DHT22;4613;48.392;9.998;2023-06-24T11:18:27;24.90;88.30
9157;DHT22;4613;48.392;9.998;2023-06-24T11:21:16;25.00;88.90
9157;DHT22;4613;48.392;9.998;2023-06-24T11:24:07;25.10;87.60
9157;DHT22;4613;48.392;9.998;2023-06-24T11:26:56;24.50;87.00
9157;DHT22;4613;48.392;9.998;2023-06-24T11:29:45;24.90;87.10
9157;DHT22;4613;48.392;9.998;2023-06-24T11:32:39;24.70;86.10
9157;DHT22;4613;48.392;9.998;2023-06-24T11:35:29;24.80;87.60
9157;DHT22;4613;48.392;9.998;2023-06-24T11:38:19;24.80;87.10
9157;DHT22;4613;48.392;9.998;2023-06-24T11:41:09;25.00;84.50
9157;DHT22;4613;48.392;9.998;2023-06-24T11:43:58;24.90;85.50
9157;DHT22;4613;48.392;9.998;2023-06-24T11:46:48;25.00;85.80
9157;DHT22;4613;48.392;9.998;2023-06-24T11:49:50;25.40;85.60
9157;DHT22;4613;48.392;9.998;2023-06-24T11:55:37;24.90;84.50
9157;DHT22;4613;48.392;9.998;2023-06-24T11:58:26;24.80;85.80
9157;DHT22;4613;48.392;9.998;2023-06-24T12:01:15;25.10;84.90
9157;DHT22;4613;48.392;9.998;2023-06-24T12:04:13;25.20;84.20
9157;DHT22;4613;48.392;9.998;2023-06-24T12:07:03;25.70;84.40
9157;DHT22;4613;48.392;9.998;2023-06-24T12:09:53;25.30;83.00
9157;DHT22;4613;48.392;9.998;2023-06-24T12:12:42;25.40;80.10
9157;DHT22;4613;48.392;9.998;2023-06-24T12:15:31;25.50;79.40
9157;DHT22;4613;48.392;9.998;2023-06-24T12:18:20;25.10;80.10
9157;DHT22;4613;48.392;9.998;2023-06-24T12:21:10;25.40;80.60
9157;DHT22;4613;48.392;9.998;2023-06-24T12:23:59;25.60;80.00
9157;DHT22;4613;48.392;9.998;2023-06-24T12:26:49;25.40;81.40
9157;DHT22;4613;48.392;9.998;2023-06-24T12:29:38;25.50;81.70
9157;DHT22;4613;48.392;9.998;2023-06-24T12:32:27;25.40;81.30
9157;DHT22;4613;48.392;9.998;2023-06-24T12:35:16;24.90;83.10
9157;DHT22;4613;48.392;9.998;2023-06-24T12:38:06;25.10;83.20
9157;DHT22;4613;48.392;9.998;2023-06-24T12:40:57;25.30;82.80
9157;DHT22;4613;48.392;9.998;2023-06-24T12:43:46;25.30;83.20
9157;DHT22;4613;48.392;9.998;2023-06-24T12:46:36;25.20;82.10
9157;DHT22;4613;48.392;9.998;2023-06-24T12:49:25;25.10;82.70
9157;DHT22;4613;48.392;9.998;2023-06-24T12:52:14;25.10;83.00
9157;DHT22;4613;48.392;9.998;2023-06-24T12:55:03;25.20;81.70
9157;DHT22;4613;48.392;9.998;2023-06-24T12:57:53;25.30;80.40
9157;DHT22;4613;48.392;9.998;2023-06-24T13:00:42;25.30;81.30
9157;DHT22;4613;48.392;9.998;2023-06-24T13:03:31;25.40;82.20
9157;DHT22;4613;48.392;9.998;2023-06-24T13:06:20;25.30;83.40
9157;DHT22;4613;48.392;9.998;2023-06-24T13:09:09;25.40;84.00
9157;DHT22;4613;48.392;9.998;2023-06-24T13:11:58;25.40;84.00
9157;DHT22;4613;48.392;9.998;2023-06-24T13:14:48;24.80;84.10
9157;DHT22;4613;48.392;9.998;2023-06-24T13:17:37;25.10;84.30
9157;DHT22;4613;48.392;9.998;2023-06-24T13:20:26;25.10;83.70
9157;DHT22;4613;48.392;9.998;2023-06-24T13:23:16;25.20;85.00
9157;DHT22;4613;48.392;9.998;2023-06-24T13:26:06;25.30;83.30
9157;DHT22;4613;48.392;9.998;2023-06-24T13:28:55;25.60;84.50
9157;DHT22;4613;48.392;9.998;2023-06-24T13:31:45;25.60;84.50
9157;DHT22;4613;48.392;9.998;2023-06-24T13:34:34;25.50;84.70
9157;DHT22;4613;48.392;9.998;2023-06-24T13:37:24;25.30;83.00
9157;DHT22;4613;48.392;9.998;2023-06-24T13:40:14;25.00;83.80
9157;DHT22;4613;48.392;9.998;2023-06-24T13:43:03;25.30;83.20
9157;DHT22;4613;48.392;9.998;2023-06-24T13:45:53;25.40;82.70
9157;DHT22;4613;48.392;9.998;2023-06-24T13:48:42;25.30;82.90
9157;DHT22;4613;48.392;9.998;2023-06-24T13:51:33;25.40;82.90
9157;DHT22;4613;48.392;9.998;2023-06-24T13:54:22;25.30;83.10
9157;DHT22;4613;48.392;9.998;2023-06-24T13:57:12;25.70;82.60
9157;DHT22;4613;48.392;9.998;2023-06-24T14:00:01;25.80;82.20
9157;DHT22;4613;48.392;9.998;2023-06-24T14:03:01;25.70;82.40
9157;DHT22;4613;48.392;9.998;2023-06-24T14:05:51;25.50;82.40
9157;DHT22;4613;48.392;9.998;2023-06-24T14:08:40;25.70;82.60
9157;DHT22;4613;48.392;9.998;2023-06-24T14:11:30;25.60;81.50
9157;DHT22;4613;48.392;9.998;2023-06-24T14:14:20;25.70;81.50
9157;DHT22;4613;48.392;9.998;2023-06-24T14:17:09;25.70;81.00
9157;DHT22;4613;48.392;9.998;2023-06-24T14:20:01;25.50;82.50
9157;DHT22;4613;48.392;9.998;2023-06-24T14:22:51;25.70;81.00
9157;DHT22;4613;48.392;9.998;2023-06-24T14:25:40;25.80;80.50
9157;DHT22;4613;48.392;9.998;2023-06-24T14:28:30;25.80;81.50
9157;DHT22;4613;48.392;9.998;2023-06-24T14:31:19;26.00;81.70
9157;DHT22;4613;48.392;9.998;2023-06-24T14:34:08;25.90;82.00
9157;DHT22;4613;48.392;9.998;2023-06-24T14:36:58;25.70;81.90
9157;DHT22;4613;48.392;9.998;2023-06-24T14:39:47;25.60;81.50
9157;DHT22;4613;48.392;9.998;2023-06-24T14:42:36;25.60;81.70
9157;DHT22;4613;48.392;9.998;2023-06-24T14:45:25;25.50;81.70
9157;DHT22;4613;48.392;9.998;2023-06-24T14:48:15;25.80;81.40
9157;DHT22;4613;48.392;9.998;2023-06-24T14:51:04;25.70;81.20
9157;DHT22;4613;48.392;9.998;2023-06-24T14:53:54;25.90;81.80
9157;DHT22;4613;48.392;9.998;2023-06-24T14:56:43;26.00;82.00
9157;DHT22;4613;48.392;9.998;2023-06-24T14:59:33;25.90;81.80
9157;DHT22;4613;48.392;9.998;2023-06-24T15:02:22;25.90;81.90
9157;DHT22;4613;48.392;9.998;2023-06-24T15:05:11;26.00;81.10
9157;DHT22;4613;48.392;9.998;2023-06-24T15:08:00;25.60;81.00
9157;DHT22;4613;48.392;9.998;2023-06-24T15:10:50;25.30;81.20
9157;DHT22;4613;48.392;9.998;2023-06-24T15:13:39;25.60;81.30
9157;DHT22;4613;48.392;9.998;2023-06-24T15:16:28;25.90;81.00
9157;DHT22;4613;48.392;9.998;2023-06-24T15:19:17;26.00;80.90
9157;DHT22;4613;48.392;9.998;2023-06-24T15:22:07;25.90;81.30
9157;DHT22;4613;48.392;9.998;2023-06-24T15:24:56;26.20;80.80
9157;DHT22;4613;48.392;9.998;2023-06-24T15:27:45;26.20;81.40
9157;DHT22;4613;48.392;9.998;2023-06-24T15:30:34;25.90;82.00
9157;DHT22;4613;48.392;9.998;2023-06-24T15:33:23;26.10;80.80
9157;DHT22;4613;48.392;9.998;2023-06-24T15:36:12;25.80;80.60
9157;DHT22;4613;48.392;9.998;2023-06-24T15:39:02;25.60;81.00
9157;DHT22;4613;48.392;9.998;2023-06-24T15:41:52;25.80;81.10
9157;DHT22;4613;48.392;9.998;2023-06-24T15:44:41;26.10;81.40
9157;DHT22;4613;48.392;9.998;2023-06-24T15:47:31;26.30;82.20
9157;DHT22;4613;48.392;9.998;2023-06-24T15:50:21;26.00;80.70
9157;DHT22;4613;48.392;9.998;2023-06-24T15:53:10;26.00;80.60
9157;DHT22;4613;48.392;9.998;2023-06-24T15:56:00;26.00;81.00
9157;DHT22;4613;48.392;9.998;2023-06-24T15:58:49;26.20;81.50
9157;DHT22;4613;48.392;9.998;2023-06-24T16:01:39;26.00;80.60
9157;DHT22;4613;48.392;9.998;2023-06-24T16:04:30;25.40;80.70
9157;DHT22;4613;48.392;9.998;2023-06-24T16:07:20;25.50;81.30
9157;DHT22;4613;48.392;9.998;2023-06-24T16:10:09;25.80;81.10
9157;DHT22;4613;48.392;9.998;2023-06-24T16:12:59;25.80;80.90
9157;DHT22;4613;48.392;9.998;2023-06-24T16:15:48;25.70;80.60
9157;DHT22;4613;48.392;9.998;2023-06-24T16:18:37;25.90;80.50
9157;DHT22;4613;48.392;9.998;2023-06-24T16:21:26;25.80;80.60
9157;DHT22;4613;48.392;9.998;2023-06-24T16:24:15;25.90;80.80
9157;DHT22;4613;48.392;9.998;2023-06-24T16:27:05;25.90;80.80
9157;DHT22;4613;48.392;9.998;2023-06-24T16:29:54;26.00;81.00
9157;DHT22;4613;48.392;9.998;2023-06-24T16:32:44;25.90;81.00
9157;DHT22;4613;48.392;9.998;2023-06-24T16:35:33;25.80;81.10
9157;DHT22;4613;48.392;9.998;2023-06-24T16:38:22;25.70;80.60
9157;DHT22;4613;48.392;9.998;2023-06-24T16:41:11;25.60;80.30
9157;DHT22;4613;48.392;9.998;2023-06-24T16:44:00;25.50;79.80
9157;DHT22;4613;48.392;9.998;2023-06-24T16:46:49;25.50;80.00
9157;DHT22;4613;48.392;9.998;2023-06-24T16:49:38;25.60;79.70
9157;DHT22;4613;48.392;9.998;2023-06-24T16:52:28;25.50;79.70
9157;DHT22;4613;48.392;9.998;2023-06-24T16:55:20;25.50;79.50
9157;DHT22;4613;48.392;9.998;2023-06-24T16:58:10;25.30;79.10
9157;DHT22;4613;48.392;9.998;2023-06-24T17:00:59;25.10;79.80
9157;DHT22;4613;48.392;9.998;2023-06-24T17:03:48;25.10;79.30
9157;DHT22;4613;48.392;9.998;2023-06-24T17:06:37;25.10;79.50
9157;DHT22;4613;48.392;9.998;2023-06-24T17:09:27;25.10;80.20
9157;DHT22;4613;48.392;9.998;2023-06-24T17:12:16;25.20;80.30
9157;DHT22;4613;48.392;9.998;2023-06-24T17:15:06;25.00;80.10
9157;DHT22;4613;48.392;9.998;2023-06-24T17:17:55;24.90;79.80
9157;DHT22;4613;48.392;9.998;2023-06-24T17:20:44;24.80;79.80
9157;DHT22;4613;48.392;9.998;2023-06-24T17:23:33;24.90;79.50
9157;DHT22;4613;48.392;9.998;2023-06-24T17:26:22;24.80;80.30
9157;DHT22;4613;48.392;9.998;2023-06-24T17:29:12;24.90;79.90
9157;DHT22;4613;48.392;9.998;2023-06-24T17:32:04;25.00;79.50
9157;DHT22;4613;48.392;9.998;2023-06-24T17:34:54;24.80;79.50
9157;DHT22;4613;48.392;9.998;2023-06-24T17:37:45;24.90;79.60
9157;DHT22;4613;48.392;9.998;2023-06-24T17:40:34;24.90;79.80
9157;DHT22;4613;48.392;9.998;2023-06-24T17:43:23;24.90;79.80
9157;DHT22;4613;48.392;9.998;2023-06-24T17:46:12;24.90;80.00
9157;DHT22;4613;48.392;9.998;2023-06-24T17:49:02;24.70;80.30
9157;DHT22;4613;48.392;9.998;2023-06-24T17:51:51;24.80;80.30
9157;DHT22;4613;48.392;9.998;2023-06-24T17:54:40;24.70;80.60
9157;DHT22;4613;48.392;9.998;2023-06-24T17:57:29;24.60;81.10
9157;DHT22;4613;48.392;9.998;2023-06-24T18:00:19;24.50;81.10
9157;DHT22;4613;48.392;9.998;2023-06-24T18:03:08;24.50;81.40
9157;DHT22;4613;48.392;9.998;2023-06-24T18:05:58;24.50;81.70
9157;DHT22;4613;48.392;9.998;2023-06-24T18:08:47;24.50;81.60
9157;DHT22;4613;48.392;9.998;2023-06-24T18:11:36;24.50;81.80
9157;DHT22;4613;48.392;9.998;2023-06-24T18:14:25;24.40;81.70
9157;DHT22;4613;48.392;9.998;2023-06-24T18:17:14;24.40;81.50
9157;DHT22;4613;48.392;9.998;2023-06-24T18:20:03;24.40;81.40
9157;DHT22;4613;48.392;9.998;2023-06-24T18:22:53;24.40;81.80
9157;DHT22;4613;48.392;9.998;2023-06-24T18:25:43;24.40;81.40
9157;DHT22;4613;48.392;9.998;2023-06-24T18:28:32;24.30;81.40
9157;DHT22;4613;48.392;9.998;2023-06-24T18:31:21;24.40;81.40
9157;DHT22;4613;48.392;9.998;2023-06-24T18:34:10;24.20;81.70
9157;DHT22;4613;48.392;9.998;2023-06-24T18:37:01;24.30;81.50
9157;DHT22;4613;48.392;9.998;2023-06-24T18:39:50;24.10;81.70
9157;DHT22;4613;48.392;9.998;2023-06-24T18:42:40;24.20;81.90